sensor_id;sensor_type;location;lat;lon;timestamp;temperature;humidity
18091;DHT22;9172;49.948;9.208;2023-07-24T00:02:07;20.50;99.90
18091;DHT22;9172;49.948;9.208;2023-07-24T00:04:36;20.50;99.90
18091;DHT22;9172;49.948;9.208;2023-07-24T00:07:05;20.50;99.90
18091;DHT22;9172;49.948;9.208;2023-07-24T00:09:35;20.50;99.90
18091;DHT22;9172;49.948;9.208;2023-07-24T00:12:04;20.50;99.90
18091;DHT22;9172;49.948;9.208;2023-07-24T00:14:34;20.50;99.90
18091;DHT22;9172;49.948;9.208;2023-07-24T00:17:03;20.50;99.90
18091;DHT22;9172;49.948;9.208;2023-07-24T00:19:31;20.50;99.90
18091;DHT22;9172;49.948;9.208;2023-07-24T00:22:00;20.50;99.90
18091;DHT22;9172;49.948;9.208;2023-07-24T00:24:30;20.40;99.90
18091;DHT22;9172;49.948;9.208;2023-07-24T00:26:59;20.40;99.90
18091;DHT22;9172;49.948;9.208;2023-07-24T00:29:28;20.50;99.90
18091;DHT22;9172;49.948;9.208;2023-07-24T00:31:57;20.40;99.90
18091;DHT22;9172;49.948;9.208;2023-07-24T00:34:27;20.40;99.90
18091;DHT22;9172;49.948;9.208;2023-07-24T00:36:55;20.40;99.90
18091;DHT22;9172;49.948;9.208;2023-07-24T00:39:24;20.30;99.90
18091;DHT22;9172;49.948;9.208;2023-07-24T00:41:55;20.20;99.90
18091;DHT22;9172;49.948;9.208;2023-07-24T00:44:24;20.10;99.90
18091;DHT22;9172;49.948;9.208;2023-07-24T00:46:53;20.00;99.90
18091;DHT22;9172;49.948;9.208;2023-07-24T00:49:22;20.00;99.90
18091;DHT22;9172;49.948;9.208;2023-07-24T00:51:50;19.90;99.90
18091;DHT22;9172;49.948;9.208;2023-07-24T00:54:19;19.90;99.90
18091;DHT22;9172;49.948;9.208;2023-07-24T00:56:47;19.90;99.90
18091;DHT22;9172;49.948;9.208;2023-07-24T00:59:16;20.00;99.90
18091;DHT22;9172;49.948;9.208;2023-07-24T01:01:46;20.00;99.90
18091;DHT22;9172;49.948;9.208;2023-07-24T01:04:17;20.10;99.90
18091;DHT22;9172;49.948;9.208;2023-07-24T01:06:47;20.20;99.90
18091;DHT22;9172;49.948;9.208;2023-07-24T01:09:16;20.20;99.90
18091;DHT22;9172;49.948;9.208;2023-07-24T01:11:47;20.20;99.90
18091;DHT22;9172;49.948;9.208;2023-07-24T01:14:20;20.10;99.90
18091;DHT22;9172;49.948;9.208;2023-07-24T01:16:51;20.10;99.90
18091;DHT22;9172;49.948;9.208;2023-07-24T01:19:28;20.00;99.90
18091;DHT22;9172;49.948;9.208;2023-07-24T01:22:02;19.80;99.90
18091;DHT22;9172;49.948;9.208;2023-07-24T01:24:36;19.80;99.90
18091;DHT22;9172;49.948;9.208;2023-07-24T01:27:04;19.90;99.90
18091;DHT22;9172;49.948;9.208;2023-07-24T01:29:35;20.00;99.90
18091;DHT22;9172;49.948;9.208;2023-07-24T01:32:06;20.00;99.90
18091;DHT22;9172;49.948;9.208;2023-07-24T01:34:36;20.00;99.90
18091;DHT22;9172;49.948;9.208;2023-07-24T01:37:05;20.00;99.90
18091;DHT22;9172;49.948;9.208;2023-07-24T01:39:34;19.90;99.90
18091;DHT22;9172;49.948;9.208;2023-07-24T01:42:03;20.00;99.90
18091;DHT22;9172;49.948;9.208;2023-07-24T01:44:33;20.00;99.90
18091;DHT22;9172;49.948;9.208;2023-07-24T01:47:01;20.00;99.90
18091;DHT22;9172;49.948;9.208;2023-07-24T01:49:30;20.00;99.90
18091;DHT22;9172;49.948;9.208;2023-07-24T01:51:59;20.00;99.90
18091;DHT22;9172;49.948;9.208;2023-07-24T01:54:29;20.00;99.90
18091;DHT22;9172;49.948;9.208;2023-07-24T01:56:57;20.00;99.90
18091;DHT22;9172;49.948;9.208;2023-07-24T01:59:28;20.00;99.90
18091;DHT22;9172;49.948;9.208;2023-07-24T02:01:57;20.00;99.90
18091;DHT22;9172;49.948;9.208;2023-07-24T02:04:25;20.10;99.90
18091;DHT22;9172;49.948;9.208;2023-07-24T02:06:54;20.10;99.90
18091;DHT22;9172;49.948;9.208;2023-07-24T02:09:23;20.10;99.90
18091;DHT22;9172;49.948;9.208;2023-07-24T02:11:52;20.10;99.90
18091;DHT22;9172;49.948;9.208;2023-07-24T02:14:21;20.10;99.90
18091;DHT22;9172;49.948;9.208;2023-07-24T02:16:51;20.10;99.90
18091;DHT22;9172;49.948;9.208;2023-07-24T02:19:20;20.10;99.90
18091;DHT22;9172;49.948;9.208;2023-07-24T02:21:49;20.10;99.90
18091;DHT22;9172;49.948;9.208;2023-07-24T02:24:19;20.10;99.90
18091;DHT22;9172;49.948;9.208;2023-07-24T02:26:48;20.00;99.90
18091;DHT22;9172;49.948;9.208;2023-07-24T02:29:16;20.00;99.90
18091;DHT22;9172;49.948;9.208;2023-07-24T02:31:46;20.00;99.90
18091;DHT22;9172;49.948;9.208;2023-07-24T02:34:14;20.00;99.90
18091;DHT22;9172;49.948;9.208;2023-07-24T02:36:44;20.00;99.90
18091;DHT22;9172;49.948;9.208;2023-07-24T02:39:12;20.00;99.90
18091;DHT22;9172;49.948;9.208;2023-07-24T02:41:42;20.00;99.90
18091;DHT22;9172;49.948;9.208;2023-07-24T02:44:10;20.00;99.90
18091;DHT22;9172;49.948;9.208;2023-07-24T02:46:39;19.90;99.90
18091;DHT22;9172;49.948;9.208;2023-07-24T02:49:08;19.90;99.90
18091;DHT22;9172;49.948;9.208;2023-07-24T02:51:37;19.80;99.90
18091;DHT22;9172;49.948;9.208;2023-07-24T02:54:07;20.30;99.90
18091;DHT22;9172;49.948;9.208;2023-07-24T02:56:36;19.60;99.90
18091;DHT22;9172;49.948;9.208;2023-07-24T02:59:07;19.60;99.90
18091;DHT22;9172;49.948;9.208;2023-07-24T03:04:13;19.60;99.90
18091;DHT22;9172;49.948;9.208;2023-07-24T03:09:18;19.70;99.90
18091;DHT22;9172;49.948;9.208;2023-07-24T03:14:23;19.70;99.90
18091;DHT22;9172;49.948;9.208;2023-07-24T03:16:53;19.70;99.90
18091;DHT22;9172;49.948;9.208;2023-07-24T03:19:21;19.70;99.90
18091;DHT22;9172;49.948;9.208;2023-07-24T03:21:51;19.70;99.90
18091;DHT22;9172;49.948;9.208;2023-07-24T03:24:20;19.70;99.90
18091;DHT22;9172;49.948;9.208;2023-07-24T03:26:49;19.70;99.90
18091;DHT22;9172;49.948;9.208;2023-07-24T03:29:19;19.60;99.90
18091;DHT22;9172;49.948;9.208;2023-07-24T03:31:48;19.60;99.90
18091;DHT22;9172;49.948;9.208;2023-07-24T03:34:17;19.60;99.90
18091;DHT22;9172;49.948;9.208;2023-07-24T03:36:46;19.60;99.90
18091;DHT22;9172;49.948;9.208;2023-07-24T03:39:16;19.60;99.90
18091;DHT22;9172;49.948;9.208;2023-07-24T03:44:22;19.60;99.90
18091;DHT22;9172;49.948;9.208;2023-07-24T03:46:51;19.40;99.90
18091;DHT22;9172;49.948;9.208;2023-07-24T03:49:20;19.20;99.90
18091;DHT22;9172;49.948;9.208;2023-07-24T03:51:50;19.00;99.90
18091;DHT22;9172;49.948;9.208;2023-07-24T03:54:20;18.90;99.90
18091;DHT22;9172;49.948;9.208;2023-07-24T03:56:49;18.80;99.90
18091;DHT22;9172;49.948;9.208;2023-07-24T03:59:18;18.90;99.90
18091;DHT22;9172;49.948;9.208;2023-07-24T04:01:48;19.00;99.90
18091;DHT22;9172;49.948;9.208;2023-07-24T04:04:17;19.10;99.90
18091;DHT22;9172;49.948;9.208;2023-07-24T04:06:46;19.10;99.90
18091;DHT22;9172;49.948;9.208;2023-07-24T04:09:15;19.20;99.90
18091;DHT22;9172;49.948;9.208;2023-07-24T04:11:44;19.20;99.90
18091;DHT22;9172;49.948;9.208;2023-07-24T04:14:12;19.20;99.90
18091;DHT22;9172;49.948;9.208;2023-07-24T04:19:19;19.30;99.90
18091;DHT22;9172;49.948;9.208;2023-07-24T04:21:47;19.30;99.90
18091;DHT22;9172;49.948;9.208;2023-07-24T04:24:16;19.30;99.90
18091;DHT22;9172;49.948;9.208;2023-07-24T04:26:45;19.30;99.90
18091;DHT22;9172;49.948;9.208;2023-07-24T04:29:16;19.30;99.90
18091;DHT22;9172;49.948;9.208;2023-07-24T04:31:45;19.30;99.90
18091;DHT22;9172;49.948;9.208;2023-07-24T04:34:14;19.10;99.90
18091;DHT22;9172;49.948;9.208;2023-07-24T04:36:42;19.00;99.90
18091;DHT22;9172;49.948;9.208;2023-07-24T04:39:11;19.00;99.90
18091;DHT22;9172;49.948;9.208;2023-07-24T04:41:39;19.10;99.90
18091;DHT22;9172;49.948;9.208;2023-07-24T04:44:09;19.10;99.90
18091;DHT22;9172;49.948;9.208;2023-07-24T04:46:38;19.20;99.90
18091;DHT22;9172;49.948;9.208;2023-07-24T04:49:07;19.30;99.90
18091;DHT22;9172;49.948;9.208;2023-07-24T04:51:36;19.40;99.90
18091;DHT22;9172;49.948;9.208;2023-07-24T04:54:05;19.40;99.90
18091;DHT22;9172;49.948;9.208;2023-07-24T04:56:34;19.50;99.90
18091;DHT22;9172;49.948;9.208;2023-07-24T04:59:04;19.50;99.90
18091;DHT22;9172;49.948;9.208;2023-07-24T05:01:34;19.60;99.90
18091;DHT22;9172;49.948;9.208;2023-07-24T05:04:03;19.60;99.90
18091;DHT22;9172;49.948;9.208;2023-07-24T05:06:32;19.60;99.90
18091;DHT22;9172;49.948;9.208;2023-07-24T05:09:03;19.60;99.90
18091;DHT22;9172;49.948;9.208;2023-07-24T05:11:31;19.70;99.90
18091;DHT22;9172;49.948;9.208;2023-07-24T05:14:00;19.70;99.90
18091;DHT22;9172;49.948;9.208;2023-07-24T05:16:29;19.80;99.90
18091;DHT22;9172;49.948;9.208;2023-07-24T05:18:59;19.80;99.90
18091;DHT22;9172;49.948;9.208;2023-07-24T05:21:27;19.80;99.90
18091;DHT22;9172;49.948;9.208;2023-07-24T05:23:56;19.90;99.90
18091;DHT22;9172;49.948;9.208;2023-07-24T05:26:25;19.90;99.90
18091;DHT22;9172;49.948;9.208;2023-07-24T05:28:55;19.90;99.90
18091;DHT22;9172;49.948;9.208;2023-07-24T05:31:24;19.90;99.90
18091;DHT22;9172;49.948;9.208;2023-07-24T05:33:53;19.90;99.90
18091;DHT22;9172;49.948;9.208;2023-07-24T05:36:22;19.90;99.90
18091;DHT22;9172;49.948;9.208;2023-07-24T05:38:52;20.00;99.90
18091;DHT22;9172;49.948;9.208;2023-07-24T05:41:20;20.00;99.90
18091;DHT22;9172;49.948;9.208;2023-07-24T05:43:49;20.00;99.90
18091;DHT22;9172;49.948;9.208;2023-07-24T05:46:18;20.00;99.90
18091;DHT22;9172;49.948;9.208;2023-07-24T05:48:47;20.00;99.90
18091;DHT22;9172;49.948;9.208;2023-07-24T05:51:16;20.10;99.90
18091;DHT22;9172;49.948;9.208;2023-07-24T05:53:45;20.10;99.90
18091;DHT22;9172;49.948;9.208;2023-07-24T05:56:14;20.20;99.90
18091;DHT22;9172;49.948;9.208;2023-07-24T05:58:43;20.20;99.90
18091;DHT22;9172;49.948;9.208;2023-07-24T06:01:14;20.40;99.90
18091;DHT22;9172;49.948;9.208;2023-07-24T06:03:42;20.40;99.90
18091;DHT22;9172;49.948;9.208;2023-07-24T06:06:10;20.40;99.90
18091;DHT22;9172;49.948;9.208;2023-07-24T06:08:40;20.50;99.90
18091;DHT22;9172;49.948;9.208;2023-07-24T06:11:10;20.50;99.90
18091;DHT22;9172;49.948;9.208;2023-07-24T06:13:39;20.50;99.90
18091;DHT22;9172;49.948;9.208;2023-07-24T06:16:08;20.50;99.90
18091;DHT22;9172;49.948;9.208;2023-07-24T06:18:39;20.50;99.90
18091;DHT22;9172;49.948;9.208;2023-07-24T06:21:09;20.50;99.90
18091;DHT22;9172;49.948;9.208;2023-07-24T06:23:39;20.60;99.90
18091;DHT22;9172;49.948;9.208;2023-07-24T06:26:08;20.60;99.90
18091;DHT22;9172;49.948;9.208;2023-07-24T06:28:37;20.60;99.90
18091;DHT22;9172;49.948;9.208;2023-07-24T06:31:07;20.60;99.90
18091;DHT22;9172;49.948;9.208;2023-07-24T06:33:36;20.60;99.90
18091;DHT22;9172;49.948;9.208;2023-07-24T06:36:09;20.70;99.90
18091;DHT22;9172;49.948;9.208;2023-07-24T06:38:37;20.70;99.90
18091;DHT22;9172;49.948;9.208;2023-07-24T06:41:08;20.70;99.90
18091;DHT22;9172;49.948;9.208;2023-07-24T06:43:37;20.70;99.90
18091;DHT22;9172;49.948;9.208;2023-07-24T06:46:06;20.70;99.90
18091;DHT22;9172;49.948;9.208;2023-07-24T06:48:34;20.70;99.90
18091;DHT22;9172;49.948;9.208;2023-07-24T06:51:03;20.70;99.90
18091;DHT22;9172;49.948;9.208;2023-07-24T06:53:31;20.80;99.90
18091;DHT22;9172;49.948;9.208;2023-07-24T06:56:00;20.80;99.90
18091;DHT22;9172;49.948;9.208;2023-07-24T06:58:29;20.80;99.90
18091;DHT22;9172;49.948;9.208;2023-07-24T07:01:17;20.90;99.90
18091;DHT22;9172;49.948;9.208;2023-07-24T07:03:46;21.00;99.90
18091;DHT22;9172;49.948;9.208;2023-07-24T07:06:14;21.00;99.90
18091;DHT22;9172;49.948;9.208;2023-07-24T07:08:43;21.10;99.90
18091;DHT22;9172;49.948;9.208;2023-07-24T07:11:13;21.20;99.90
18091;DHT22;9172;49.948;9.208;2023-07-24T07:13:42;21.30;99.90
18091;DHT22;9172;49.948;9.208;2023-07-24T07:16:11;21.30;99.90
18091;DHT22;9172;49.948;9.208;2023-07-24T07:18:40;21.50;99.90
18091;DHT22;9172;49.948;9.208;2023-07-24T07:21:10;21.70;99.90
18091;DHT22;9172;49.948;9.208;2023-07-24T07:23:38;21.90;99.90
18091;DHT22;9172;49.948;9.208;2023-07-24T07:26:07;22.00;99.90
18091;DHT22;9172;49.948;9.208;2023-07-24T07:28:36;22.00;99.90
18091;DHT22;9172;49.948;9.208;2023-07-24T07:31:06;22.10;99.90
18091;DHT22;9172;49.948;9.208;2023-07-24T07:33:35;22.20;99.90
18091;DHT22;9172;49.948;9.208;2023-07-24T07:36:04;22.40;99.90
18091;DHT22;9172;49.948;9.208;2023-07-24T07:38:33;22.50;99.90
18091;DHT22;9172;49.948;9.208;2023-07-24T07:41:05;22.70;99.90
18091;DHT22;9172;49.948;9.208;2023-07-24T07:43:34;22.80;99.90
18091;DHT22;9172;49.948;9.208;2023-07-24T07:46:04;23.00;99.90
18091;DHT22;9172;49.948;9.208;2023-07-24T07:48:32;23.20;99.90
18091;DHT22;9172;49.948;9.208;2023-07-24T07:51:02;23.20;99.90
18091;DHT22;9172;49.948;9.208;2023-07-24T07:53:31;23.20;99.90
18091;DHT22;9172;49.948;9.208;2023-07-24T07:56:00;23.20;99.90
18091;DHT22;9172;49.948;9.208;2023-07-24T07:58:30;23.20;99.90
18091;DHT22;9172;49.948;9.208;2023-07-24T08:01:02;23.10;99.90
18091;DHT22;9172;49.948;9.208;2023-07-24T08:03:30;23.00;99.90
18091;DHT22;9172;49.948;9.208;2023-07-24T08:05:58;23.00;99.90
18091;DHT22;9172;49.948;9.208;2023-07-24T08:08:28;22.90;99.90
18091;DHT22;9172;49.948;9.208;2023-07-24T08:10:56;22.80;99.90
18091;DHT22;9172;49.948;9.208;2023-07-24T08:13:25;22.80;99.90
18091;DHT22;9172;49.948;9.208;2023-07-24T08:15:53;22.80;99.90
18091;DHT22;9172;49.948;9.208;2023-07-24T08:18:22;22.80;99.90
18091;DHT22;9172;49.948;9.208;2023-07-24T08:20:51;22.90;99.90
18091;DHT22;9172;49.948;9.208;2023-07-24T08:23:21;23.00;99.90
18091;DHT22;9172;49.948;9.208;2023-07-24T08:25:53;23.20;99.90
18091;DHT22;9172;49.948;9.208;2023-07-24T08:28:22;23.30;99.90
18091;DHT22;9172;49.948;9.208;2023-07-24T08:30:58;23.40;99.90
18091;DHT22;9172;49.948;9.208;2023-07-24T08:33:28;23.40;99.90
18091;DHT22;9172;49.948;9.208;2023-07-24T08:36:01;23.40;99.90
18091;DHT22;9172;49.948;9.208;2023-07-24T08:38:29;23.40;99.90
18091;DHT22;9172;49.948;9.208;2023-07-24T08:41:03;23.30;99.90
18091;DHT22;9172;49.948;9.208;2023-07-24T08:43:34;23.30;99.90
18091;DHT22;9172;49.948;9.208;2023-07-24T08:46:04;23.30;99.90
18091;DHT22;9172;49.948;9.208;2023-07-24T08:48:35;23.30;99.90
18091;DHT22;9172;49.948;9.208;2023-07-24T08:51:04;23.30;99.90
18091;DHT22;9172;49.948;9.208;2023-07-24T08:53:34;23.30;99.90
18091;DHT22;9172;49.948;9.208;2023-07-24T08:56:04;23.30;99.90
18091;DHT22;9172;49.948;9.208;2023-07-24T08:58:33;23.30;99.90
18091;DHT22;9172;49.948;9.208;2023-07-24T09:01:03;23.30;99.90
18091;DHT22;9172;49.948;9.208;2023-07-24T09:03:32;23.40;99.90
18091;DHT22;9172;49.948;9.208;2023-07-24T09:06:02;23.40;99.90
18091;DHT22;9172;49.948;9.208;2023-07-24T09:08:33;23.40;99.90
18091;DHT22;9172;49.948;9.208;2023-07-24T09:11:03;23.40;99.90
18091;DHT22;9172;49.948;9.208;2023-07-24T09:13:34;23.40;99.90
18091;DHT22;9172;49.948;9.208;2023-07-24T09:16:03;23.50;99.90
18091;DHT22;9172;49.948;9.208;2023-07-24T09:18:40;23.50;99.90
18091;DHT22;9172;49.948;9.208;2023-07-24T09:21:09;23.50;99.90
18091;DHT22;9172;49.948;9.208;2023-07-24T09:23:39;23.50;99.90
18091;DHT22;9172;49.948;9.208;2023-07-24T09:26:10;23.60;99.90
18091;DHT22;9172;49.948;9.208;2023-07-24T09:28:40;23.60;99.90
18091;DHT22;9172;49.948;9.208;2023-07-24T09:31:09;23.60;99.90
18091;DHT22;9172;49.948;9.208;2023-07-24T09:33:40;23.60;99.90
18091;DHT22;9172;49.948;9.208;2023-07-24T09:36:10;23.50;99.90
18091;DHT22;9172;49.948;9.208;2023-07-24T09:38:41;23.60;99.90
18091;DHT22;9172;49.948;9.208;2023-07-24T09:41:10;23.70;99.90
18091;DHT22;9172;49.948;9.208;2023-07-24T09:43:39;23.70;99.90
18091;DHT22;9172;49.948;9.208;2023-07-24T09:46:11;23.80;99.90
18091;DHT22;9172;49.948;9.208;2023-07-24T09:48:41;23.90;99.90
18091;DHT22;9172;49.948;9.208;2023-07-24T09:51:11;24.10;99.90
18091;DHT22;9172;49.948;9.208;2023-07-24T09:56:21;24.30;99.90
18091;DHT22;9172;49.948;9.208;2023-07-24T09:58:51;24.40;99.90
18091;DHT22;9172;49.948;9.208;2023-07-24T10:01:24;24.60;99.90
18091;DHT22;9172;49.948;9.208;2023-07-24T10:03:54;24.60;99.90
18091;DHT22;9172;49.948;9.208;2023-07-24T10:06:23;24.50;99.90
18091;DHT22;9172;49.948;9.208;2023-07-24T10:08:54;24.40;99.90
18091;DHT22;9172;49.948;9.208;2023-07-24T10:11:26;24.30;99.90
18091;DHT22;9172;49.948;9.208;2023-07-24T10:13:55;24.10;99.90
18091;DHT22;9172;49.948;9.208;2023-07-24T10:16:23;24.00;99.90
18091;DHT22;9172;49.948;9.208;2023-07-24T10:18:53;23.90;99.90
18091;DHT22;9172;49.948;9.208;2023-07-24T10:21:27;23.80;99.90
18091;DHT22;9172;49.948;9.208;2023-07-24T10:23:59;23.70;99.90
18091;DHT22;9172;49.948;9.208;2023-07-24T10:26:28;23.70;99.90
18091;DHT22;9172;49.948;9.208;2023-07-24T10:28:57;23.60;99.90
18091;DHT22;9172;49.948;9.208;2023-07-24T10:31:26;23.60;99.90
18091;DHT22;9172;49.948;9.208;2023-07-24T10:33:59;23.60;99.90
18091;DHT22;9172;49.948;9.208;2023-07-24T10:36:32;23.60;99.90
18091;DHT22;9172;49.948;9.208;2023-07-24T10:38:59;23.50;99.90
18091;DHT22;9172;49.948;9.208;2023-07-24T10:41:36;23.30;99.90
18091;DHT22;9172;49.948;9.208;2023-07-24T10:44:06;23.30;99.90
18091;DHT22;9172;49.948;9.208;2023-07-24T10:46:39;23.20;99.90
18091;DHT22;9172;49.948;9.208;2023-07-24T10:49:11;23.20;99.90
18091;DHT22;9172;49.948;9.208;2023-07-24T10:51:40;23.30;99.90
18091;DHT22;9172;49.948;9.208;2023-07-24T10:54:09;23.20;99.90
18091;DHT22;9172;49.948;9.208;2023-07-24T10:56:37;23.20;99.90
18091;DHT22;9172;49.948;9.208;2023-07-24T10:59:07;23.10;99.90
18091;DHT22;9172;49.948;9.208;2023-07-24T11:01:36;23.10;99.90
18091;DHT22;9172;49.948;9.208;2023-07-24T11:04:05;23.10;99.90
18091;DHT22;9172;49.948;9.208;2023-07-24T11:06:34;23.10;99.90
18091;DHT22;9172;49.948;9.208;2023-07-24T11:09:05;23.10;99.90
18091;DHT22;9172;49.948;9.208;2023-07-24T11:11:34;23.10;99.90
18091;DHT22;9172;49.948;9.208;2023-07-24T11:14:04;23.10;99.90
18091;DHT22;9172;49.948;9.208;2023-07-24T11:16:32;23.10;99.90
18091;DHT22;9172;49.948;9.208;2023-07-24T11:19:01;23.20;99.90
18091;DHT22;9172;49.948;9.208;2023-07-24T11:21:30;24.80;99.90
18091;DHT22;9172;49.948;9.208;2023-07-24T11:24:00;23.50;99.90
18091;DHT22;9172;49.948;9.208;2023-07-24T11:26:29;23.50;99.90
18091;DHT22;9172;49.948;9.208;2023-07-24T11:28:58;23.60;99.90
18091;DHT22;9172;49.948;9.208;2023-07-24T11:31:27;23.70;99.90
18091;DHT22;9172;49.948;9.208;2023-07-24T11:33:58;23.80;99.90
18091;DHT22;9172;49.948;9.208;2023-07-24T11:36:27;24.00;99.90
18091;DHT22;9172;49.948;9.208;2023-07-24T11:38:56;24.10;99.90
18091;DHT22;9172;49.948;9.208;2023-07-24T11:41:27;24.10;99.90
18091;DHT22;9172;49.948;9.208;2023-07-24T11:43:56;24.20;99.90
18091;DHT22;9172;49.948;9.208;2023-07-24T11:46:26;24.20;99.90
18091;DHT22;9172;49.948;9.208;2023-07-24T11:48:55;24.20;99.90
18091;DHT22;9172;49.948;9.208;2023-07-24T11:51:26;24.10;99.90
18091;DHT22;9172;49.948;9.208;2023-07-24T11:54:04;24.00;99.90
18091;DHT22;9172;49.948;9.208;2023-07-24T11:56:34;24.00;99.90
18091;DHT22;9172;49.948;9.208;2023-07-24T11:59:13;24.00;99.90
18091;DHT22;9172;49.948;9.208;2023-07-24T12:01:46;24.10;99.90
18091;DHT22;9172;49.948;9.208;2023-07-24T12:04:15;24.10;99.90
18091;DHT22;9172;49.948;9.208;2023-07-24T12:06:45;24.20;99.90
18091;DHT22;9172;49.948;9.208;2023-07-24T12:09:15;24.30;99.90
18091;DHT22;9172;49.948;9.208;2023-07-24T12:11:45;24.40;99.90
18091;DHT22;9172;49.948;9.208;2023-07-24T12:14:15;24.60;99.90
18091;DHT22;9172;49.948;9.208;2023-07-24T12:16:45;24.70;99.90
18091;DHT22;9172;49.948;9.208;2023-07-24T12:19:15;24.80;99.90
18091;DHT22;9172;49.948;9.208;2023-07-24T12:21:44;24.90;99.90
18091;DHT22;9172;49.948;9.208;2023-07-24T12:24:13;24.90;99.90
18091;DHT22;9172;49.948;9.208;2023-07-24T12:26:41;24.80;99.90
18091;DHT22;9172;49.948;9.208;2023-07-24T12:29:10;24.80;99.90
18091;DHT22;9172;49.948;9.208;2023-07-24T12:31:39;24.90;99.90
18091;DHT22;9172;49.948;9.208;2023-07-24T12:34:09;24.90;99.90
18091;DHT22;9172;49.948;9.208;2023-07-24T12:36:37;24.90;99.90
18091;DHT22;9172;49.948;9.208;2023-07-24T12:39:08;24.80;99.90
18091;DHT22;9172;49.948;9.208;2023-07-24T12:41:37;24.90;99.90
18091;DHT22;9172;49.948;9.208;2023-07-24T12:44:05;25.00;99.90
18091;DHT22;9172;49.948;9.208;2023-07-24T12:46:34;25.20;99.90
18091;DHT22;9172;49.948;9.208;2023-07-24T12:49:04;25.10;99.90
18091;DHT22;9172;49.948;9.208;2023-07-24T12:51:32;25.10;99.90
18091;DHT22;9172;49.948;9.208;2023-07-24T12:54:01;25.20;99.90
18091;DHT22;9172;49.948;9.208;2023-07-24T12:56:30;25.20;99.90
18091;DHT22;9172;49.948;9.208;2023-07-24T12:58:58;25.20;99.90
18091;DHT22;9172;49.948;9.208;2023-07-24T13:01:27;25.20;99.90
18091;DHT22;9172;49.948;9.208;2023-07-24T13:03:56;25.20;99.90
18091;DHT22;9172;49.948;9.208;2023-07-24T13:06:26;25.20;99.90
18091;DHT22;9172;49.948;9.208;2023-07-24T13:08:54;25.30;99.90
18091;DHT22;9172;49.948;9.208;2023-07-24T13:11:24;25.40;99.90
18091;DHT22;9172;49.948;9.208;2023-07-24T13:13:52;25.40;99.90
18091;DHT22;9172;49.948;9.208;2023-07-24T13:16:23;25.40;99.90
18091;DHT22;9172;49.948;9.208;2023-07-24T13:18:52;25.50;99.90
18091;DHT22;9172;49.948;9.208;2023-07-24T13:21:21;25.50;99.90
18091;DHT22;9172;49.948;9.208;2023-07-24T13:23:50;25.60;99.60
18091;DHT22;9172;49.948;9.208;2023-07-24T13:26:19;25.50;99.60
18091;DHT22;9172;49.948;9.208;2023-07-24T13:28:49;25.60;99.80
18091;DHT22;9172;49.948;9.208;2023-07-24T13:31:19;25.60;99.50
18091;DHT22;9172;49.948;9.208;2023-07-24T13:33:47;25.60;98.80
18091;DHT22;9172;49.948;9.208;2023-07-24T13:36:16;25.60;99.00
18091;DHT22;9172;49.948;9.208;2023-07-24T13:38:46;25.50;98.90
18091;DHT22;9172;49.948;9.208;2023-07-24T13:41:15;25.60;99.00
18091;DHT22;9172;49.948;9.208;2023-07-24T13:43:44;25.50;98.90
18091;DHT22;9172;49.948;9.208;2023-07-24T13:46:12;25.40;99.00
18091;DHT22;9172;49.948;9.208;2023-07-24T13:48:41;25.20;99.50
18091;DHT22;9172;49.948;9.208;2023-07-24T13:51:09;25.20;99.80
18091;DHT22;9172;49.948;9.208;2023-07-24T13:53:39;25.30;99.70
18091;DHT22;9172;49.948;9.208;2023-07-24T13:56:08;25.20;99.80
18091;DHT22;9172;49.948;9.208;2023-07-24T13:58:38;25.30;99.80
18091;DHT22;9172;49.948;9.208;2023-07-24T14:01:08;25.40;99.70
18091;DHT22;9172;49.948;9.208;2023-07-24T14:03:37;25.30;99.80
18091;DHT22;9172;49.948;9.208;2023-07-24T14:06:06;25.30;99.90
18091;DHT22;9172;49.948;9.208;2023-07-24T14:08:34;25.30;99.90
18091;DHT22;9172;49.948;9.208;2023-07-24T14:11:03;25.20;99.90
18091;DHT22;9172;49.948;9.208;2023-07-24T14:13:32;25.10;99.90
18091;DHT22;9172;49.948;9.208;2023-07-24T14:16:01;25.00;99.90
18091;DHT22;9172;49.948;9.208;2023-07-24T14:18:29;25.00;99.90
18091;DHT22;9172;49.948;9.208;2023-07-24T14:20:58;24.90;99.90
18091;DHT22;9172;49.948;9.208;2023-07-24T14:23:26;24.90;99.90
18091;DHT22;9172;49.948;9.208;2023-07-24T14:25:55;24.90;99.90
18091;DHT22;9172;49.948;9.208;2023-07-24T14:28:24;24.80;99.90
18091;DHT22;9172;49.948;9.208;2023-07-24T14:30:53;24.80;99.90
18091;DHT22;9172;49.948;9.208;2023-07-24T14:33:21;24.80;99.90
18091;DHT22;9172;49.948;9.208;2023-07-24T14:35:52;24.70;99.90
18091;DHT22;9172;49.948;9.208;2023-07-24T14:38:22;24.70;99.90
18091;DHT22;9172;49.948;9.208;2023-07-24T14:40:51;24.60;99.90
18091;DHT22;9172;49.948;9.208;2023-07-24T14:43:21;24.50;99.90
18091;DHT22;9172;49.948;9.208;2023-07-24T14:45:49;24.50;99.90
18091;DHT22;9172;49.948;9.208;2023-07-24T14:48:18;24.40;99.90
18091;DHT22;9172;49.948;9.208;2023-07-24T14:50:46;24.30;99.90
18091;DHT22;9172;49.948;9.208;2023-07-24T14:53:16;24.20;99.90
18091;DHT22;9172;49.948;9.208;2023-07-24T14:55:44;24.10;99.90
18091;DHT22;9172;49.948;9.208;2023-07-24T14:58:13;24.00;99.90
18091;DHT22;9172;49.948;9.208;2023-07-24T15:00:42;24.00;99.90
18091;DHT22;9172;49.948;9.208;2023-07-24T15:03:11;23.90;99.90
18091;DHT22;9172;49.948;9.208;2023-07-24T15:05:40;23.90;99.90
18091;DHT22;9172;49.948;9.208;2023-07-24T15:08:08;24.00;99.90
18091;DHT22;9172;49.948;9.208;2023-07-24T15:10:37;24.10;99.90
18091;DHT22;9172;49.948;9.208;2023-07-24T15:13:08;24.20;99.90
18091;DHT22;9172;49.948;9.208;2023-07-24T15:15:38;24.30;99.90
18091;DHT22;9172;49.948;9.208;2023-07-24T15:18:07;24.40;99.90
18091;DHT22;9172;49.948;9.208;2023-07-24T15:20:35;24.30;99.90
18091;DHT22;9172;49.948;9.208;2023-07-24T15:23:05;24.30;99.90
18091;DHT22;9172;49.948;9.208;2023-07-24T15:25:33;24.20;99.90
18091;DHT22;9172;49.948;9.208;2023-07-24T15:28:03;24.00;99.90
18091;DHT22;9172;49.948;9.208;2023-07-24T15:30:32;24.00;99.90
18091;DHT22;9172;49.948;9.208;2023-07-24T15:33:01;23.90;99.90
18091;DHT22;9172;49.948;9.208;2023-07-24T15:35:31;23.80;99.90
18091;DHT22;9172;49.948;9.208;2023-07-24T15:37:59;23.70;99.90
18091;DHT22;9172;49.948;9.208;2023-07-24T15:40:29;23.50;99.90
18091;DHT22;9172;49.948;9.208;2023-07-24T15:42:59;23.40;99.90
18091;DHT22;9172;49.948;9.208;2023-07-24T15:45:28;23.30;99.90
18091;DHT22;9172;49.948;9.208;2023-07-24T15:47:57;23.20;99.90
18091;DHT22;9172;49.948;9.208;2023-07-24T15:50:26;23.20;99.90
18091;DHT22;9172;49.948;9.208;2023-07-24T15:52:55;23.30;99.90
18091;DHT22;9172;49.948;9.208;2023-07-24T15:55:24;23.40;99.90
18091;DHT22;9172;49.948;9.208;2023-07-24T15:57:52;23.30;99.90
18091;DHT22;9172;49.948;9.208;2023-07-24T16:00:22;23.40;99.90
18091;DHT22;9172;49.948;9.208;2023-07-24T16:02:50;23.10;99.90
18091;DHT22;9172;49.948;9.208;2023-07-24T16:05:20;22.90;99.90
18091;DHT22;9172;49.948;9.208;2023-07-24T16:07:49;22.80;99.90
18091;DHT22;9172;49.948;9.208;2023-07-24T16:10:18;22.70;99.90
18091;DHT22;9172;49.948;9.208;2023-07-24T16:12:47;22.80;99.90
18091;DHT22;9172;49.948;9.208;2023-07-24T16:15:15;22.90;99.90